createdAt,value
2022-12-22T00:00:06.085Z,23.25
2022-12-22T00:02:58.240Z,23.77
2022-12-22T00:05:43.591Z,23.63
2022-12-22T00:08:28.671Z,24.58
2022-12-22T00:11:13.908Z,27.45
2022-12-22T00:14:00.215Z,26.67
2022-12-22T00:16:50.268Z,24.73
2022-12-22T00:19:35.277Z,24.45
2022-12-22T00:22:21.429Z,24.92
2022-12-22T00:25:06.375Z,25.80
2022-12-22T00:27:51.670Z,27.38
2022-12-22T00:30:36.782Z,26.33
2022-12-22T00:33:23.428Z,25.70
2022-12-22T00:36:09.013Z,24.98
2022-12-22T00:38:54.216Z,25.70
2022-12-22T00:41:39.448Z,24.08
2022-12-22T00:44:24.579Z,25.02
2022-12-22T00:47:09.482Z,24.40
2022-12-22T00:49:54.502Z,24.38
2022-12-22T00:52:40.790Z,22.95
2022-12-22T00:55:35.758Z,23.20
2022-12-22T00:58:21.363Z,21.95
2022-12-22T01:01:06.398Z,21.55
2022-12-22T01:03:51.655Z,21.45
2022-12-22T01:06:36.746Z,22.00
2022-12-22T01:09:22.745Z,21.85
2022-12-22T01:12:08.056Z,18.35
2022-12-22T01:14:53.149Z,19.40
2022-12-22T01:17:38.298Z,19.25
2022-12-22T01:20:23.469Z,17.90
2022-12-22T01:23:08.608Z,18.55
2022-12-22T01:25:53.625Z,19.15
2022-12-22T01:28:38.599Z,18.65
2022-12-22T01:31:32.573Z,20.38
2022-12-22T01:34:17.792Z,17.92
2022-12-22T01:37:02.791Z,19.10
2022-12-22T01:39:47.995Z,18.90
2022-12-22T01:42:33.078Z,16.92
2022-12-22T01:45:31.812Z,17.25
2022-12-22T01:48:16.910Z,16.30
2022-12-22T01:51:01.949Z,16.30
2022-12-22T01:53:47.865Z,15.68
2022-12-22T01:56:32.663Z,14.35
2022-12-22T01:59:19.775Z,14.18
2022-12-22T02:02:05.016Z,14.07
2022-12-22T02:04:55.262Z,14.13
2022-12-22T02:07:40.459Z,14.52
2022-12-22T02:10:25.550Z,13.60
2022-12-22T02:13:20.377Z,13.70
2022-12-22T02:16:09.578Z,13.48
2022-12-22T02:19:04.550Z,11.45
2022-12-22T02:21:53.706Z,10.18
2022-12-22T02:24:41.690Z,10.75
2022-12-22T02:27:26.678Z,11.00
2022-12-22T02:30:12.981Z,7.82
2022-12-22T02:33:05.156Z,6.22
2022-12-22T02:36:05.819Z,6.63
2022-12-22T02:38:57.398Z,6.80
2022-12-22T02:42:01.526Z,6.13
2022-12-22T02:45:05.704Z,6.00
2022-12-22T02:48:06.145Z,5.35
2022-12-22T02:51:10.968Z,5.85
2022-12-22T02:56:41.699Z,7.00
2022-12-22T02:59:26.558Z,8.18
2022-12-22T03:02:11.723Z,8.52
2022-12-22T03:04:56.876Z,10.50
2022-12-22T03:07:42.007Z,10.05
2022-12-22T03:10:27.374Z,11.77
2022-12-22T03:13:12.264Z,15.93
2022-12-22T03:15:57.427Z,14.65
2022-12-22T03:18:42.629Z,15.88
2022-12-22T03:21:27.649Z,17.02
2022-12-22T03:24:12.654Z,17.52
2022-12-22T03:26:39.094Z,18.98
2022-12-22T03:29:05.431Z,19.45
2022-12-22T03:31:31.796Z,20.88
2022-12-22T03:33:58.109Z,21.13
2022-12-22T03:36:24.422Z,20.98
2022-12-22T03:38:50.758Z,19.67
2022-12-22T03:41:36.076Z,19.65
2022-12-22T03:44:21.226Z,19.08
2022-12-22T03:46:47.563Z,19.10
2022-12-22T03:49:13.979Z,19.33
2022-12-22T03:51:44.400Z,19.92
2022-12-22T03:54:12.146Z,19.48
2022-12-22T03:56:38.622Z,17.58
2022-12-22T03:59:05.612Z,15.75
2022-12-22T04:01:33.324Z,16.00
2022-12-22T04:04:00.055Z,14.88
2022-12-22T04:06:26.421Z,16.05
2022-12-22T04:08:52.776Z,16.27
2022-12-22T04:11:38.021Z,15.77
2022-12-22T04:14:04.481Z,17.38
2022-12-22T04:16:31.381Z,17.10
2022-12-22T04:18:57.895Z,17.55
2022-12-22T04:21:24.654Z,17.85
2022-12-22T04:23:54.083Z,17.30
2022-12-22T04:26:22.515Z,17.40
2022-12-22T04:28:49.631Z,16.40
2022-12-22T04:31:16.041Z,15.85
2022-12-22T04:33:42.401Z,16.48
2022-12-22T04:36:08.977Z,14.95
2022-12-22T04:38:35.722Z,13.63
2022-12-22T04:41:02.057Z,14.20
2022-12-22T04:43:28.464Z,13.50
2022-12-22T04:45:55.786Z,12.30
2022-12-22T04:48:22.748Z,12.38
2022-12-22T04:50:53.338Z,12.13
2022-12-22T04:53:19.896Z,11.18
2022-12-22T04:55:50.343Z,10.95
2022-12-22T04:58:17.078Z,9.50
2022-12-22T05:00:43.408Z,10.38
2022-12-22T05:03:09.799Z,9.77
2022-12-22T05:05:36.503Z,9.25
2022-12-22T05:08:03.001Z,10.20
2022-12-22T05:10:29.726Z,9.85
2022-12-22T05:12:56.114Z,9.27
2022-12-22T05:15:23.556Z,9.15
2022-12-22T05:17:50.107Z,9.68
2022-12-22T05:20:16.724Z,8.93
2022-12-22T05:22:43.210Z,8.43
2022-12-22T05:25:09.676Z,9.43
2022-12-22T05:27:36.348Z,9.00
2022-12-22T05:30:03.410Z,9.27
2022-12-22T05:32:32.254Z,9.68
2022-12-22T05:34:58.729Z,9.18
2022-12-22T05:37:25.088Z,9.18
2022-12-22T05:39:51.459Z,9.07
2022-12-22T05:42:35.679Z,8.40
2022-12-22T05:47:28.318Z,7.53
2022-12-22T05:49:54.638Z,8.15
2022-12-22T05:52:20.958Z,9.68
2022-12-22T05:54:47.290Z,10.77
2022-12-22T05:57:13.610Z,10.10
2022-12-22T05:59:40.019Z,10.40
2022-12-22T06:02:06.430Z,9.73
2022-12-22T06:04:32.879Z,10.20
2022-12-22T06:06:59.253Z,11.13
2022-12-22T06:09:25.566Z,10.15
2022-12-22T06:11:51.878Z,9.73
2022-12-22T06:14:18.214Z,10.50
2022-12-22T06:16:44.561Z,10.43
2022-12-22T06:19:10.900Z,11.45
2022-12-22T06:21:37.243Z,11.27
2022-12-22T06:24:04.484Z,12.05
2022-12-22T06:26:30.846Z,11.65
2022-12-22T06:28:57.151Z,12.13
2022-12-22T06:31:24.015Z,11.20
2022-12-22T06:33:50.364Z,11.57
2022-12-22T06:36:16.701Z,11.43
2022-12-22T06:38:43.031Z,10.40
2022-12-22T06:41:09.384Z,10.60
2022-12-22T06:43:36.754Z,10.70
2022-12-22T06:46:03.079Z,10.30
2022-12-22T06:48:29.422Z,9.60
2022-12-22T06:50:59.431Z,11.07
2022-12-22T06:53:26.222Z,8.45
2022-12-22T06:55:52.564Z,7.63
2022-12-22T06:58:18.844Z,7.05
2022-12-22T07:00:48.420Z,7.40
2022-12-22T07:03:14.873Z,7.20
2022-12-22T07:05:41.359Z,6.15
2022-12-22T07:08:09.194Z,5.47
2022-12-22T07:10:54.529Z,5.05
2022-12-22T07:13:20.840Z,4.75
2022-12-22T07:15:52.133Z,3.85
2022-12-22T07:18:24.153Z,3.63
2022-12-22T07:20:50.516Z,3.60
2022-12-22T07:23:16.834Z,3.10
2022-12-22T07:25:43.284Z,2.72
2022-12-22T07:28:13.639Z,2.30
2022-12-22T07:30:44.975Z,2.47
2022-12-22T07:33:11.286Z,2.92
2022-12-22T07:35:37.703Z,2.83
2022-12-22T07:38:03.998Z,2.10
2022-12-22T07:40:30.312Z,2.65
2022-12-22T07:42:57.319Z,2.80
2022-12-22T07:45:27.501Z,2.35
2022-12-22T07:48:01.836Z,2.40
2022-12-22T07:50:28.539Z,2.42
2022-12-22T07:52:56.228Z,2.08
2022-12-22T07:55:23.266Z,2.35
2022-12-22T07:57:49.751Z,2.97
2022-12-22T08:00:16.473Z,2.70
2022-12-22T08:02:43.291Z,2.63
2022-12-22T08:05:09.809Z,2.90
2022-12-22T08:07:36.188Z,3.20
2022-12-22T08:10:02.502Z,2.38
2022-12-22T08:12:30.811Z,2.25
2022-12-22T08:14:57.210Z,2.10
2022-12-22T08:17:23.689Z,2.35
2022-12-22T08:19:50.109Z,2.42
2022-12-22T08:22:16.452Z,2.05
2022-12-22T08:24:42.797Z,2.22
2022-12-22T08:27:11.811Z,2.50
2022-12-22T08:29:40.938Z,2.40
2022-12-22T08:32:07.396Z,2.30
2022-12-22T08:34:33.894Z,2.50
2022-12-22T08:37:01.875Z,2.40
2022-12-22T08:39:31.089Z,2.42
2022-12-22T08:41:58.002Z,2.13
2022-12-22T08:44:28.645Z,1.98
2022-12-22T08:46:56.007Z,3.17
2022-12-22T08:49:22.916Z,2.85
2022-12-22T08:51:49.894Z,3.00
2022-12-22T08:54:16.344Z,3.22
2022-12-22T08:56:43.190Z,3.15
2022-12-22T08:59:09.970Z,3.00
2022-12-22T09:01:37.405Z,2.10
2022-12-22T09:04:04.696Z,2.35
2022-12-22T09:06:38.327Z,2.60
2022-12-22T09:09:08.085Z,2.20
2022-12-22T09:11:34.599Z,2.33
2022-12-22T09:14:01.710Z,2.10
2022-12-22T09:16:29.235Z,2.35
2022-12-22T09:18:56.072Z,2.05
2022-12-22T09:21:23.234Z,1.98
2022-12-22T09:23:49.832Z,2.50
2022-12-22T09:26:17.804Z,1.90
2022-12-22T09:28:49.915Z,1.95
2022-12-22T09:31:17.352Z,1.92
2022-12-22T09:33:43.765Z,1.90
2022-12-22T09:36:11.802Z,1.42
2022-12-22T09:38:38.935Z,1.80
2022-12-22T09:41:09.443Z,1.42
2022-12-22T09:43:36.122Z,1.70
2022-12-22T09:46:02.759Z,1.80
2022-12-22T09:48:34.331Z,1.48
2022-12-22T09:51:01.423Z,1.35
2022-12-22T09:53:27.783Z,1.40
2022-12-22T09:55:54.169Z,1.67
2022-12-22T09:58:31.199Z,1.50
2022-12-22T10:01:16.501Z,1.30
2022-12-22T10:04:01.268Z,1.50
2022-12-22T10:06:39.239Z,1.00
2022-12-22T10:09:44.050Z,1.10
2022-12-22T10:12:02.091Z,1.05
2022-12-22T10:14:34.314Z,1.15
2022-12-22T10:17:19.428Z,0.85
2022-12-22T10:19:46.675Z,1.23
2022-12-22T10:22:26.993Z,1.00
2022-12-22T10:24:53.585Z,1.00
2022-12-22T10:27:27.460Z,1.25
2022-12-22T10:29:55.154Z,1.20
2022-12-22T10:32:22.633Z,1.20
2022-12-22T10:35:03.137Z,1.60
2022-12-22T10:37:34.820Z,1.38
2022-12-22T10:40:13.599Z,1.30
2022-12-22T10:42:44.044Z,1.20
2022-12-22T10:45:16.703Z,1.40
2022-12-22T10:47:46.899Z,1.15
2022-12-22T10:50:13.311Z,0.98
2022-12-22T10:52:39.870Z,1.23
2022-12-22T10:55:17.200Z,1.77
2022-12-22T10:57:43.622Z,1.67
2022-12-22T11:00:36.354Z,1.40
2022-12-22T11:03:04.312Z,1.20
2022-12-22T11:05:31.968Z,1.00
2022-12-22T11:08:17.969Z,1.00
2022-12-22T11:11:03.359Z,0.82
2022-12-22T11:13:48.576Z,0.80
2022-12-22T11:16:18.467Z,0.85
2022-12-22T11:19:03.141Z,0.73
2022-12-22T11:21:41.715Z,0.60
2022-12-22T11:24:26.546Z,0.80
2022-12-22T11:27:11.796Z,0.60
2022-12-22T11:29:50.357Z,0.80
2022-12-22T11:32:27.084Z,0.70
2022-12-22T11:34:58.195Z,0.65
2022-12-22T11:37:24.509Z,0.75
2022-12-22T11:39:59.278Z,0.90
2022-12-22T11:42:35.216Z,0.70
2022-12-22T11:45:22.602Z,0.60
2022-12-22T11:48:07.852Z,0.80
2022-12-22T11:51:02.073Z,0.80
2022-12-22T11:53:47.063Z,1.08
2022-12-22T11:56:44.911Z,1.00
2022-12-22T11:59:20.478Z,0.68
2022-12-22T12:01:53.130Z,0.80
2022-12-22T12:04:22.462Z,0.88
2022-12-22T12:07:07.667Z,1.00
2022-12-22T12:09:37.042Z,1.08
2022-12-22T12:12:18.628Z,1.10
2022-12-22T12:15:03.733Z,1.27
2022-12-22T12:17:49.713Z,1.30
2022-12-22T12:20:20.163Z,1.17
2022-12-22T12:22:53.600Z,1.20
2022-12-22T12:25:25.595Z,1.42
2022-12-22T12:28:11.235Z,1.13
2022-12-22T12:30:49.997Z,1.30
2022-12-22T12:33:22.883Z,1.38
2022-12-22T12:35:49.270Z,1.38
2022-12-22T12:38:56.327Z,1.60
2022-12-22T12:41:09.969Z,1.30
2022-12-22T12:43:36.942Z,1.30
2022-12-22T12:46:23.488Z,1.50
2022-12-22T12:48:49.973Z,1.50
2022-12-22T12:51:35.278Z,1.70
2022-12-22T12:54:20.437Z,1.83
2022-12-22T12:56:57.019Z,1.63
2022-12-22T12:59:41.740Z,1.65
2022-12-22T13:02:27.163Z,2.03
2022-12-22T13:05:12.248Z,2.30
2022-12-22T13:07:57.631Z,2.50
2022-12-22T13:10:24.954Z,2.47
2022-12-22T13:12:52.636Z,2.58
2022-12-22T13:15:28.131Z,2.17
2022-12-22T13:17:54.555Z,2.90
2022-12-22T13:20:29.612Z,2.55
2022-12-22T13:22:56.858Z,2.55
2022-12-22T13:25:24.413Z,2.85
2022-12-22T13:27:50.808Z,2.85
2022-12-22T13:30:19.730Z,2.78
2022-12-22T13:32:47.436Z,3.10
2022-12-22T13:35:47.805Z,2.78
2022-12-22T13:38:30.270Z,2.90
2022-12-22T13:40:58.166Z,2.60
2022-12-22T13:43:26.404Z,2.72
2022-12-22T13:45:56.817Z,3.03
2022-12-22T13:48:23.073Z,2.47
2022-12-22T13:51:00.644Z,2.60
2022-12-22T13:56:27.319Z,3.10
2022-12-22T13:58:57.359Z,7.43
2022-12-22T14:01:24.006Z,2.97
2022-12-22T14:04:01.466Z,2.90
2022-12-22T14:06:28.775Z,2.58
2022-12-22T14:09:09.591Z,2.58
2022-12-22T14:11:35.874Z,2.30
2022-12-22T14:14:06.287Z,2.33
2022-12-22T14:16:32.712Z,2.60
2022-12-22T14:18:59.779Z,3.17
2022-12-22T14:21:26.770Z,2.10
2022-12-22T14:23:53.276Z,2.38
2022-12-22T14:26:22.645Z,2.70
2022-12-22T14:28:53.118Z,2.20
2022-12-22T14:31:19.948Z,2.20
2022-12-22T14:33:56.718Z,2.90
2022-12-22T14:36:24.127Z,2.60
2022-12-22T14:38:50.485Z,2.13
2022-12-22T14:41:43.295Z,1.95
2022-12-22T14:44:14.076Z,2.00
2022-12-22T14:46:41.354Z,1.90
2022-12-22T14:49:15.753Z,1.40
2022-12-22T14:51:42.456Z,1.42
2022-12-22T14:54:19.930Z,1.40
2022-12-22T14:56:47.845Z,1.20
2022-12-22T14:59:27.425Z,1.13
2022-12-22T15:01:58.045Z,1.30
2022-12-22T15:04:24.524Z,1.35
2022-12-22T15:06:50.915Z,1.20
2022-12-22T15:09:19.169Z,1.55
2022-12-22T15:11:56.823Z,1.02
2022-12-22T15:14:24.950Z,1.30
2022-12-22T15:16:54.816Z,0.98
2022-12-22T15:19:24.164Z,1.20
2022-12-22T15:21:51.412Z,1.13
2022-12-22T15:24:18.227Z,1.08
2022-12-22T15:26:45.000Z,0.82
2022-12-22T15:29:11.474Z,1.20
2022-12-22T15:31:38.584Z,1.50
2022-12-22T15:34:09.850Z,1.33
2022-12-22T15:36:36.130Z,1.25
2022-12-22T15:39:02.429Z,1.23
2022-12-22T15:41:28.797Z,1.25
2022-12-22T15:43:58.310Z,1.50
2022-12-22T15:46:25.461Z,1.45
2022-12-22T15:48:52.226Z,1.10
2022-12-22T15:51:24.630Z,1.30
2022-12-22T15:53:51.099Z,1.88
2022-12-22T15:56:19.115Z,1.80
2022-12-22T15:58:46.722Z,1.70
2022-12-22T16:01:13.245Z,1.50
2022-12-22T16:03:39.787Z,1.60
2022-12-22T16:06:13.558Z,1.90
2022-12-22T16:08:40.646Z,1.70
2022-12-22T16:11:07.358Z,1.35
2022-12-22T16:13:35.284Z,1.60
2022-12-22T16:16:02.056Z,1.80
2022-12-22T16:18:28.439Z,2.30
2022-12-22T16:20:55.625Z,2.00
2022-12-22T16:23:25.944Z,2.10
2022-12-22T16:26:00.889Z,2.72
2022-12-22T16:28:30.401Z,2.85
2022-12-22T16:30:57.044Z,3.10
2022-12-22T16:33:23.364Z,3.20
2022-12-22T16:35:49.669Z,3.60
2022-12-22T16:38:19.037Z,3.50
2022-12-22T16:40:47.314Z,3.38
2022-12-22T16:46:05.925Z,3.72
2022-12-22T16:48:39.635Z,3.47
2022-12-22T16:51:06.619Z,3.45
2022-12-22T16:53:32.920Z,3.17
2022-12-22T16:55:59.801Z,3.30
2022-12-22T16:58:26.201Z,3.17
2022-12-22T17:00:53.740Z,3.15
2022-12-22T17:03:23.846Z,2.78
2022-12-22T17:05:52.123Z,2.28
2022-12-22T17:08:20.592Z,1.95
2022-12-22T17:10:47.162Z,2.63
2022-12-22T17:13:13.755Z,2.85
2022-12-22T17:15:41.257Z,3.03
2022-12-22T17:18:15.424Z,3.47
2022-12-22T17:20:41.867Z,3.80
2022-12-22T17:23:28.669Z,3.70
2022-12-22T17:25:54.957Z,3.97
2022-12-22T17:28:21.233Z,4.15
2022-12-22T17:30:47.592Z,3.65
2022-12-22T17:33:17.412Z,4.15
2022-12-22T17:35:44.714Z,3.30
2022-12-22T17:38:15.374Z,2.97
2022-12-22T17:40:42.243Z,3.67
2022-12-22T17:43:13.110Z,4.20
2022-12-22T17:45:39.461Z,3.40
2022-12-22T17:48:06.087Z,3.70
2022-12-22T17:50:32.460Z,3.95
2022-12-22T17:52:59.867Z,4.50
2022-12-22T17:56:06.086Z,6.03
2022-12-22T17:58:14.184Z,6.55
2022-12-22T18:00:40.525Z,9.45
2022-12-22T18:03:08.572Z,10.10
2022-12-22T18:05:38.056Z,40.47
2022-12-22T18:08:04.560Z,4.10
2022-12-22T18:10:39.553Z,3.38
2022-12-22T18:13:12.297Z,3.25
2022-12-22T18:15:38.769Z,3.40
2022-12-22T18:18:11.872Z,3.70
2022-12-22T18:20:38.279Z,3.80
2022-12-22T18:23:04.844Z,3.13
2022-12-22T18:25:32.143Z,3.38
2022-12-22T18:27:58.479Z,3.50
2022-12-22T18:30:26.285Z,4.10
2022-12-22T18:32:53.273Z,4.18
2022-12-22T18:35:20.709Z,4.57
2022-12-22T18:37:47.603Z,4.72
2022-12-22T18:40:33.277Z,4.95
2022-12-22T18:43:00.321Z,4.78
2022-12-22T18:45:27.694Z,5.00
2022-12-22T18:47:54.499Z,5.68
2022-12-22T18:50:22.226Z,5.90
2022-12-22T18:52:54.092Z,5.78
2022-12-22T18:55:26.322Z,6.95
2022-12-22T18:57:53.665Z,7.63
2022-12-22T19:00:21.906Z,10.00
2022-12-22T19:02:49.067Z,11.38
2022-12-22T19:05:16.933Z,11.70
2022-12-22T19:07:43.639Z,10.35
2022-12-22T19:10:14.023Z,17.90
2022-12-22T19:12:40.548Z,15.95
2022-12-22T19:15:07.315Z,17.55
2022-12-22T19:17:33.677Z,15.95
2022-12-22T19:20:00.050Z,14.25
2022-12-22T19:22:26.414Z,16.10
2022-12-22T19:24:57.270Z,15.45
2022-12-22T19:27:24.647Z,14.50
2022-12-22T19:30:02.614Z,13.82
2022-12-22T19:32:30.402Z,15.57
2022-12-22T19:34:56.769Z,16.20
2022-12-22T19:37:23.053Z,15.27
2022-12-22T19:39:49.461Z,12.70
2022-12-22T19:42:17.203Z,13.35
2022-12-22T19:44:43.967Z,12.95
2022-12-22T19:47:29.563Z,13.00
2022-12-22T19:49:56.162Z,12.98
2022-12-22T19:52:22.531Z,12.82
2022-12-22T19:54:48.896Z,13.60
2022-12-22T19:57:20.520Z,12.48
2022-12-22T19:59:48.548Z,12.98
2022-12-22T20:02:24.684Z,12.25
2022-12-22T20:04:51.325Z,11.52
2022-12-22T20:07:19.403Z,10.57
2022-12-22T20:09:45.803Z,11.60
2022-12-22T20:12:22.497Z,10.60
2022-12-22T20:14:51.332Z,10.55
2022-12-22T20:17:18.055Z,10.68
2022-12-22T20:19:44.416Z,9.90
2022-12-22T20:22:15.247Z,10.32
2022-12-22T20:24:41.674Z,9.70
2022-12-22T20:27:22.398Z,10.77
2022-12-22T20:29:48.809Z,10.32
2022-12-22T20:32:15.674Z,10.60
2022-12-22T20:34:42.510Z,10.68
2022-12-22T20:37:15.810Z,10.85
2022-12-22T20:39:42.494Z,9.82
2022-12-22T20:42:19.033Z,10.32
2022-12-22T20:45:03.161Z,10.65
2022-12-22T20:47:30.844Z,11.05
2022-12-22T20:49:57.137Z,10.48
2022-12-22T20:52:23.429Z,10.95
2022-12-22T20:54:49.823Z,10.35
2022-12-22T20:57:16.499Z,11.98
2022-12-22T20:59:43.290Z,11.13
2022-12-22T21:02:23.385Z,10.57
2022-12-22T21:04:49.939Z,9.90
2022-12-22T21:07:16.269Z,10.63
2022-12-22T21:09:42.663Z,11.57
2022-12-22T21:12:08.974Z,10.30
2022-12-22T21:14:35.299Z,11.00
2022-12-22T21:17:01.662Z,10.90
2022-12-22T21:19:28.084Z,11.18
2022-12-22T21:21:54.721Z,11.43
2022-12-22T21:24:21.048Z,11.05
2022-12-22T21:26:48.874Z,10.82
2022-12-22T21:29:23.560Z,10.30
2022-12-22T21:31:50.023Z,10.05
2022-12-22T21:34:16.497Z,10.90
2022-12-22T21:36:43.823Z,10.60
2022-12-22T21:39:16.541Z,11.23
2022-12-22T21:42:01.431Z,10.25
2022-12-22T21:44:28.259Z,10.30
2022-12-22T21:46:55.972Z,10.48
2022-12-22T21:49:24.057Z,10.45
2022-12-22T21:51:51.677Z,10.43
2022-12-22T21:54:19.066Z,10.40
2022-12-22T21:56:45.837Z,10.77
2022-12-22T21:59:12.500Z,10.73
2022-12-22T22:01:40.659Z,10.48
2022-12-22T22:04:07.403Z,9.70
2022-12-22T22:06:33.741Z,9.57
2022-12-22T22:09:00.092Z,9.50
2022-12-22T22:11:26.569Z,8.65
2022-12-22T22:13:53.162Z,7.25
2022-12-22T22:16:19.815Z,7.53
2022-12-22T22:18:48.366Z,6.85
2022-12-22T22:21:16.023Z,6.40
2022-12-22T22:23:42.409Z,6.78
2022-12-22T22:26:08.994Z,6.72
2022-12-22T22:28:36.445Z,6.18
2022-12-22T22:31:08.698Z,6.57
2022-12-22T22:33:35.079Z,6.30
2022-12-22T22:36:07.103Z,6.50
2022-12-22T22:38:35.156Z,7.75
2022-12-22T22:41:01.702Z,8.25
2022-12-22T22:43:28.024Z,7.03
2022-12-22T22:45:54.617Z,7.38
2022-12-22T22:48:22.146Z,7.10
2022-12-22T22:50:48.825Z,7.65
2022-12-22T22:53:15.230Z,7.10
2022-12-22T22:55:41.583Z,7.28
2022-12-22T22:58:08.173Z,7.50
2022-12-22T23:00:34.527Z,8.50
2022-12-22T23:03:00.923Z,8.20
2022-12-22T23:05:27.306Z,8.00
2022-12-22T23:07:53.622Z,8.07
2022-12-22T23:10:19.972Z,8.65
2022-12-22T23:12:46.387Z,8.13
2022-12-22T23:15:12.772Z,8.55
2022-12-22T23:17:39.070Z,8.32
2022-12-22T23:20:05.834Z,7.95
2022-12-22T23:22:32.146Z,7.55
2022-12-22T23:24:58.497Z,8.82
2022-12-22T23:27:24.775Z,8.88
2022-12-22T23:29:51.065Z,8.38
2022-12-22T23:32:17.414Z,7.97
2022-12-22T23:34:43.759Z,6.93
2022-12-22T23:37:17.225Z,7.35
2022-12-22T23:39:45.570Z,7.45
2022-12-22T23:42:11.923Z,6.65
2022-12-22T23:44:38.221Z,6.28
2022-12-22T23:47:04.653Z,5.35
2022-12-22T23:49:30.986Z,5.30
2022-12-22T23:51:57.307Z,6.13
2022-12-22T23:54:23.644Z,4.88
2022-12-22T23:56:49.975Z,4.82
2022-12-22T23:59:16.256Z,4.57
